createdAt,value
2023-01-27T00:00:55.617Z,-3.81
2023-01-27T00:03:23.418Z,-3.76
2023-01-27T00:05:50.777Z,-3.72
2023-01-27T00:08:18.471Z,-3.70
2023-01-27T00:10:47.248Z,-3.70
2023-01-27T00:13:27.616Z,-3.72
2023-01-27T00:15:55.627Z,-3.73
2023-01-27T00:18:23.931Z,-3.72
2023-01-27T00:21:09.720Z,-3.67
2023-01-27T00:24:32.598Z,-3.69
2023-01-27T00:27:34.021Z,-3.83
2023-01-27T00:30:13.201Z,-3.85
2023-01-27T00:33:00.216Z,-3.89
2023-01-27T00:35:28.341Z,-3.88
2023-01-27T00:38:07.406Z,-3.91
2023-01-27T00:40:34.731Z,-3.79
2023-01-27T00:43:03.522Z,-3.82
2023-01-27T00:45:49.379Z,-3.92
2023-01-27T00:48:16.803Z,-3.94
2023-01-27T00:50:45.758Z,-3.93
2023-01-27T00:53:13.196Z,-3.98
2023-01-27T00:55:41.704Z,-3.98
2023-01-27T00:58:10.423Z,-3.89
2023-01-27T01:00:37.810Z,-4.00
2023-01-27T01:03:05.409Z,-4.07
2023-01-27T01:05:32.794Z,-4.04
2023-01-27T01:08:00.145Z,-4.08
2023-01-27T01:10:29.086Z,-4.06
2023-01-27T01:12:56.433Z,-4.03
2023-01-27T01:15:25.573Z,-4.03
2023-01-27T01:17:52.808Z,-4.04
2023-01-27T01:20:20.025Z,-3.99
2023-01-27T01:22:47.443Z,-4.06
2023-01-27T01:25:14.855Z,-4.08
2023-01-27T01:27:44.932Z,-4.03
2023-01-27T01:30:13.095Z,-4.03
2023-01-27T01:32:41.973Z,-4.05
2023-01-27T01:35:09.648Z,-4.11
2023-01-27T01:37:37.177Z,-4.10
2023-01-27T01:40:06.118Z,-4.13
2023-01-27T01:42:53.903Z,-4.08
2023-01-27T01:45:45.423Z,-4.16
2023-01-27T01:48:18.064Z,-4.19
2023-01-27T01:50:49.667Z,-4.16
2023-01-27T01:53:18.368Z,-4.17
2023-01-27T01:55:48.039Z,-4.16
2023-01-27T01:58:17.108Z,-4.14
2023-01-27T02:00:44.580Z,-4.14
2023-01-27T02:03:12.450Z,-4.11
2023-01-27T02:05:45.416Z,-4.17
2023-01-27T02:08:17.070Z,-4.15
2023-01-27T02:10:45.398Z,-4.14
2023-01-27T02:13:12.829Z,-4.13
2023-01-27T02:15:40.608Z,-4.13
2023-01-27T02:18:08.147Z,-4.16
2023-01-27T02:20:43.260Z,-4.20
2023-01-27T02:23:24.019Z,-4.20
2023-01-27T02:25:57.868Z,-4.16
2023-01-27T02:28:28.157Z,-4.20
2023-01-27T02:30:56.337Z,-4.25
2023-01-27T02:33:23.934Z,-4.24
2023-01-27T02:35:59.367Z,-4.23
2023-01-27T02:38:29.714Z,-4.27
2023-01-27T02:41:02.719Z,-4.27
2023-01-27T02:43:29.933Z,-4.24
2023-01-27T02:45:57.778Z,-4.24
2023-01-27T02:48:25.621Z,-4.23
2023-01-27T02:50:53.163Z,-4.24
2023-01-27T02:53:20.580Z,-4.18
2023-01-27T02:55:47.925Z,-4.18
2023-01-27T02:58:16.718Z,-4.21
2023-01-27T03:00:49.052Z,-4.19
2023-01-27T03:03:16.710Z,-4.14
2023-01-27T03:05:45.274Z,-4.20
2023-01-27T03:08:12.765Z,-4.24
2023-01-27T03:10:40.302Z,-4.26
2023-01-27T03:13:07.644Z,-4.27
2023-01-27T03:15:55.142Z,-4.20
2023-01-27T03:18:22.832Z,-4.24
2023-01-27T03:20:50.430Z,-4.27
2023-01-27T03:23:19.855Z,-4.32
2023-01-27T03:25:51.050Z,-4.32
2023-01-27T03:28:19.047Z,-4.32
2023-01-27T03:31:02.065Z,-4.31
2023-01-27T03:33:43.247Z,-4.29
2023-01-27T03:36:44.169Z,-4.28
2023-01-27T03:39:30.399Z,-4.28
2023-01-27T03:42:16.654Z,-4.27
2023-01-27T03:45:02.855Z,-4.29
2023-01-27T03:47:32.848Z,-4.23
2023-01-27T03:50:00.173Z,-4.25
2023-01-27T03:52:27.584Z,-4.32
2023-01-27T03:54:54.840Z,-4.40
2023-01-27T03:57:22.144Z,-4.40
2023-01-27T03:59:49.448Z,-4.40
2023-01-27T04:02:35.293Z,-4.36
2023-01-27T04:05:23.357Z,-4.37
2023-01-27T04:07:50.591Z,-4.38
2023-01-27T04:10:20.582Z,-4.36
2023-01-27T04:12:49.446Z,-4.31
2023-01-27T04:15:17.634Z,-4.33
2023-01-27T04:17:46.579Z,-4.37
2023-01-27T04:20:15.375Z,-4.37
2023-01-27T04:22:42.615Z,-4.36
2023-01-27T04:25:12.252Z,-4.39
2023-01-27T04:27:40.574Z,-4.33
2023-01-27T04:30:09.489Z,-4.43
2023-01-27T04:32:36.759Z,-4.39
2023-01-27T04:35:04.509Z,-4.40
2023-01-27T04:37:33.477Z,-4.34
2023-01-27T04:40:01.299Z,-4.37
2023-01-27T04:42:28.596Z,-4.39
2023-01-27T04:44:55.835Z,-4.34
2023-01-27T04:47:23.050Z,-4.32
2023-01-27T04:49:50.567Z,-4.36
2023-01-27T04:52:17.873Z,-4.34
2023-01-27T04:54:46.589Z,-4.34
2023-01-27T04:57:13.897Z,-4.37
2023-01-27T04:59:41.373Z,-4.27
2023-01-27T05:02:08.997Z,-4.24
2023-01-27T05:04:36.502Z,-4.20
2023-01-27T05:07:04.597Z,-4.18
2023-01-27T05:09:32.204Z,-4.22
2023-01-27T05:12:00.840Z,-4.17
2023-01-27T05:14:28.354Z,-4.19
2023-01-27T05:16:56.778Z,-4.24
2023-01-27T05:19:24.244Z,-4.21
2023-01-27T05:21:51.499Z,-4.30
2023-01-27T05:24:18.966Z,-4.26
2023-01-27T05:26:46.782Z,-4.32
2023-01-27T05:29:15.462Z,-4.36
2023-01-27T05:31:42.885Z,-4.34
2023-01-27T05:34:10.206Z,-4.30
2023-01-27T05:36:37.482Z,-4.31
2023-01-27T05:39:07.101Z,-4.25
2023-01-27T05:41:35.552Z,-4.24
2023-01-27T05:44:03.293Z,-4.27
2023-01-27T05:46:33.637Z,-4.23
2023-01-27T05:49:03.018Z,-4.22
2023-01-27T05:51:31.943Z,-4.22
2023-01-27T05:53:59.315Z,-4.21
2023-01-27T05:56:27.261Z,-4.24
2023-01-27T05:58:55.541Z,-4.30
2023-01-27T06:01:25.993Z,-4.32
2023-01-27T06:03:54.986Z,-4.32
2023-01-27T06:06:24.034Z,-4.29
2023-01-27T06:08:51.621Z,-4.33
2023-01-27T06:11:21.022Z,-4.31
2023-01-27T06:13:48.937Z,-4.29
2023-01-27T06:16:20.929Z,-4.31
2023-01-27T06:18:49.260Z,-4.22
2023-01-27T06:21:18.626Z,-4.25
2023-01-27T06:23:46.153Z,-4.26
2023-01-27T06:26:16.495Z,-4.28
2023-01-27T06:28:44.226Z,-4.27
2023-01-27T06:31:13.762Z,-4.19
2023-01-27T06:33:41.633Z,-4.20
2023-01-27T06:36:11.019Z,-4.21
2023-01-27T06:38:39.977Z,-4.23
2023-01-27T06:41:07.872Z,-4.17
2023-01-27T06:43:35.511Z,-4.17
2023-01-27T06:46:05.532Z,-4.17
2023-01-27T06:48:34.023Z,-4.14
2023-01-27T06:51:01.692Z,-4.08
2023-01-27T06:53:29.069Z,-4.04
2023-01-27T06:55:59.617Z,-4.08
2023-01-27T06:58:27.642Z,-4.06
2023-01-27T07:00:55.874Z,-4.05
2023-01-27T07:03:23.545Z,-4.02
2023-01-27T07:05:51.444Z,-4.03
2023-01-27T07:08:18.890Z,-4.01
2023-01-27T07:10:46.262Z,-4.00
2023-01-27T07:13:15.612Z,-4.00
2023-01-27T07:15:43.273Z,-3.98
2023-01-27T07:18:11.482Z,-3.93
2023-01-27T07:20:38.791Z,-3.92
2023-01-27T07:23:06.542Z,-3.90
2023-01-27T07:25:35.209Z,-3.84
2023-01-27T07:28:03.706Z,-3.77
2023-01-27T07:30:37.596Z,-3.73
2023-01-27T07:33:06.240Z,-3.74
2023-01-27T07:35:34.209Z,-3.78
2023-01-27T07:38:01.519Z,-3.69
2023-01-27T07:40:29.163Z,-3.69
2023-01-27T07:42:58.735Z,-3.79
2023-01-27T07:45:28.290Z,-3.81
2023-01-27T07:48:01.555Z,-3.81
2023-01-27T07:50:29.144Z,-3.78
2023-01-27T07:52:59.249Z,-3.75
2023-01-27T07:55:26.614Z,-3.73
2023-01-27T07:57:54.381Z,-3.73
2023-01-27T08:00:22.476Z,-3.65
2023-01-27T08:02:50.912Z,-3.68
2023-01-27T08:05:20.876Z,-3.69
2023-01-27T08:07:48.664Z,-3.59
2023-01-27T08:10:17.910Z,-3.60
2023-01-27T08:12:46.128Z,-3.61
2023-01-27T08:15:16.038Z,-3.50
2023-01-27T08:17:44.323Z,-3.58
2023-01-27T08:20:12.980Z,-3.56
2023-01-27T08:22:42.070Z,-3.62
2023-01-27T08:25:10.016Z,-3.61
2023-01-27T08:27:37.342Z,-3.54
2023-01-27T08:30:05.333Z,-3.60
2023-01-27T08:32:34.360Z,-3.64
2023-01-27T08:35:01.705Z,-3.57
2023-01-27T08:37:30.828Z,-3.54
2023-01-27T08:39:59.627Z,-3.51
2023-01-27T08:42:27.043Z,-3.55
2023-01-27T08:44:54.800Z,-3.61
2023-01-27T08:47:22.193Z,-3.59
2023-01-27T08:49:49.502Z,-3.66
2023-01-27T08:52:16.837Z,-3.68
2023-01-27T08:54:44.070Z,-3.66
2023-01-27T08:57:12.914Z,-3.54
2023-01-27T08:59:40.278Z,-3.56
2023-01-27T09:02:07.767Z,-3.56
2023-01-27T09:04:38.158Z,-3.55
2023-01-27T09:07:05.382Z,-3.51
2023-01-27T09:09:32.796Z,-3.42
2023-01-27T09:12:00.041Z,-3.42
2023-01-27T09:14:29.016Z,-3.43
2023-01-27T09:16:56.357Z,-3.43
2023-01-27T09:19:23.735Z,-3.37
2023-01-27T09:21:51.124Z,-3.32
2023-01-27T09:24:19.541Z,-3.31
2023-01-27T09:26:47.225Z,-3.33
2023-01-27T09:29:14.716Z,-3.32
2023-01-27T09:31:43.740Z,-3.29
2023-01-27T09:34:11.249Z,-3.25
2023-01-27T09:36:43.603Z,-3.27
2023-01-27T09:39:12.067Z,-3.30
2023-01-27T09:41:58.073Z,-3.28
2023-01-27T09:44:46.057Z,-3.28
2023-01-27T09:47:40.627Z,-3.34
2023-01-27T09:50:24.683Z,-3.24
2023-01-27T09:53:14.746Z,-3.17
2023-01-27T09:55:49.568Z,-3.20
2023-01-27T09:58:26.694Z,-3.18
2023-01-27T10:01:02.802Z,-3.12
2023-01-27T10:03:58.432Z,-3.14
2023-01-27T10:06:52.449Z,-3.11
2023-01-27T10:09:43.759Z,-3.11
2023-01-27T10:12:24.627Z,-3.10
2023-01-27T10:15:07.250Z,-3.10
2023-01-27T10:17:44.490Z,-3.09
2023-01-27T10:20:27.123Z,-3.02
2023-01-27T10:23:03.553Z,-2.98
2023-01-27T10:25:43.747Z,-2.98
2023-01-27T10:28:13.583Z,-3.04
2023-01-27T10:30:49.169Z,-3.06
2023-01-27T10:33:18.627Z,-2.97
2023-01-27T10:35:52.528Z,-2.91
2023-01-27T10:38:33.780Z,-2.88
2023-01-27T10:41:15.347Z,-2.84
2023-01-27T10:43:55.063Z,-2.84
2023-01-27T10:46:28.768Z,-2.75
2023-01-27T10:49:04.189Z,-2.72
2023-01-27T10:51:36.687Z,-2.71
2023-01-27T10:54:10.241Z,-2.75
2023-01-27T10:56:43.316Z,-2.74
2023-01-27T10:59:15.217Z,-2.73
2023-01-27T11:01:47.191Z,-2.73
2023-01-27T11:04:19.056Z,-2.75
2023-01-27T11:06:50.265Z,-2.82
2023-01-27T11:09:26.054Z,-2.80
2023-01-27T11:11:58.480Z,-2.80
2023-01-27T11:14:29.108Z,-2.82
2023-01-27T11:17:03.955Z,-2.81
2023-01-27T11:19:40.134Z,-2.78
2023-01-27T11:22:21.389Z,-2.80
2023-01-27T11:24:57.985Z,-2.77
2023-01-27T11:27:53.257Z,-2.75
2023-01-27T11:30:26.442Z,-2.71
2023-01-27T11:33:02.441Z,-2.70
2023-01-27T11:35:31.072Z,-2.65
2023-01-27T11:38:14.645Z,-2.61
2023-01-27T11:40:44.189Z,-2.67
2023-01-27T11:43:16.580Z,-2.77
2023-01-27T11:45:48.498Z,-2.67
2023-01-27T11:48:18.142Z,-2.68
2023-01-27T11:50:46.177Z,-2.70
2023-01-27T11:53:20.637Z,-2.73
2023-01-27T11:55:51.334Z,-2.73
2023-01-27T11:58:25.052Z,-2.73
2023-01-27T12:00:56.806Z,-2.68
2023-01-27T12:03:30.659Z,-2.64
2023-01-27T12:06:04.584Z,-2.57
2023-01-27T12:08:42.096Z,-2.55
2023-01-27T12:11:19.242Z,-2.62
2023-01-27T12:13:51.841Z,-2.65
2023-01-27T12:16:19.588Z,-2.71
2023-01-27T12:18:52.948Z,-2.75
2023-01-27T12:21:21.713Z,-2.71
2023-01-27T12:23:54.404Z,-2.69
2023-01-27T12:26:35.090Z,-2.63
2023-01-27T12:29:07.397Z,-2.76
2023-01-27T12:31:46.334Z,-2.74
2023-01-27T12:34:24.051Z,-2.76
2023-01-27T12:36:53.376Z,-2.78
2023-01-27T12:39:33.324Z,-2.79
2023-01-27T12:42:00.565Z,-2.77
2023-01-27T12:44:41.246Z,-2.67
2023-01-27T12:47:21.975Z,-2.70
2023-01-27T12:49:49.324Z,-2.75
2023-01-27T12:52:19.379Z,-2.70
2023-01-27T12:54:51.357Z,-2.65
2023-01-27T12:57:21.715Z,-2.71
2023-01-27T12:59:51.982Z,-2.72
2023-01-27T13:02:20.930Z,-2.73
2023-01-27T13:04:53.511Z,-2.73
2023-01-27T13:07:25.873Z,-2.70
2023-01-27T13:09:57.696Z,-2.75
2023-01-27T13:12:30.038Z,-2.74
2023-01-27T13:15:05.490Z,-2.70
2023-01-27T13:17:38.662Z,-2.71
2023-01-27T13:20:08.661Z,-2.67
2023-01-27T13:22:42.283Z,-2.69
2023-01-27T13:25:19.471Z,-2.84
2023-01-27T13:27:49.399Z,-2.74
2023-01-27T13:30:24.767Z,-2.71
2023-01-27T13:32:56.400Z,-2.73
2023-01-27T13:35:29.294Z,-2.73
2023-01-27T13:38:04.781Z,-2.68
2023-01-27T13:40:39.194Z,-2.65
2023-01-27T13:43:12.587Z,-2.70
2023-01-27T13:45:43.171Z,-2.69
2023-01-27T13:48:19.003Z,-2.70
2023-01-27T13:50:50.259Z,-2.72
2023-01-27T13:53:19.927Z,-2.66
2023-01-27T13:56:05.840Z,-2.74
2023-01-27T13:58:46.929Z,-2.72
2023-01-27T14:01:24.391Z,-2.74
2023-01-27T14:04:18.941Z,-2.79
2023-01-27T14:07:00.811Z,-2.71
2023-01-27T14:09:57.068Z,-2.83
2023-01-27T14:12:49.179Z,-2.73
2023-01-27T14:15:26.405Z,-2.68
2023-01-27T14:18:01.116Z,-2.67
2023-01-27T14:20:56.156Z,-2.64
2023-01-27T14:23:43.316Z,-2.66
2023-01-27T14:26:20.701Z,-2.72
2023-01-27T14:29:03.232Z,-2.71
2023-01-27T14:31:42.142Z,-2.67
2023-01-27T14:34:27.133Z,-2.69
2023-01-27T14:37:01.949Z,-2.69
2023-01-27T14:39:38.694Z,-2.76
2023-01-27T14:42:14.283Z,-2.71
2023-01-27T14:45:07.208Z,-2.66
2023-01-27T14:47:42.595Z,-2.67
2023-01-27T14:50:22.131Z,-2.72
2023-01-27T14:52:59.352Z,-2.67
2023-01-27T14:55:35.208Z,-2.70
2023-01-27T14:58:20.328Z,-2.68
2023-01-27T15:00:59.746Z,-2.67
2023-01-27T15:04:07.483Z,-2.68
2023-01-27T15:06:42.936Z,-2.68
2023-01-27T15:09:20.027Z,-2.63
2023-01-27T15:12:19.643Z,-2.59
2023-01-27T15:15:07.902Z,-2.62
2023-01-27T15:17:53.281Z,-2.58
2023-01-27T15:20:33.326Z,-2.61
2023-01-27T15:23:27.348Z,-2.60
2023-01-27T15:26:00.008Z,-2.60
2023-01-27T15:28:30.984Z,-2.61
2023-01-27T15:31:24.243Z,-2.74
2023-01-27T15:33:57.954Z,-2.63
2023-01-27T15:36:34.240Z,-2.63
2023-01-27T15:39:18.891Z,-2.66
2023-01-27T15:42:10.377Z,-2.64
2023-01-27T15:44:58.466Z,-2.63
2023-01-27T15:47:27.755Z,-2.57
2023-01-27T15:50:05.709Z,-2.64
2023-01-27T15:52:36.413Z,-2.55
2023-01-27T15:55:06.085Z,-2.54
2023-01-27T15:57:36.193Z,-2.54
2023-01-27T16:00:07.625Z,-2.58
2023-01-27T16:02:47.165Z,-2.48
2023-01-27T16:05:24.121Z,-2.47
2023-01-27T16:07:53.869Z,-2.49
2023-01-27T16:10:24.083Z,-2.50
2023-01-27T16:13:23.155Z,-2.51
2023-01-27T16:16:10.805Z,-2.49
2023-01-27T16:18:45.251Z,-2.58
2023-01-27T16:21:36.307Z,-2.59
2023-01-27T16:24:12.037Z,-2.52
2023-01-27T16:26:43.540Z,-2.50
2023-01-27T16:29:26.424Z,-2.47
2023-01-27T16:32:00.642Z,-2.46
2023-01-27T16:34:35.038Z,-2.44
2023-01-27T16:37:15.506Z,-2.44
2023-01-27T16:39:47.206Z,-2.38
2023-01-27T16:42:18.167Z,-2.37
2023-01-27T16:44:48.411Z,-2.40
2023-01-27T16:47:23.256Z,-2.38
2023-01-27T16:49:53.793Z,-2.37
2023-01-27T16:52:40.853Z,-2.43
2023-01-27T16:55:22.073Z,-2.34
2023-01-27T16:57:50.886Z,-2.34
2023-01-27T17:00:21.864Z,-2.37
2023-01-27T17:02:51.173Z,-2.40
2023-01-27T17:05:19.937Z,-2.41
2023-01-27T17:08:16.622Z,-2.46
2023-01-27T17:10:48.888Z,-2.51
2023-01-27T17:13:28.197Z,-2.49
2023-01-27T17:15:56.125Z,-2.48
2023-01-27T17:18:25.393Z,-2.50
2023-01-27T17:20:53.341Z,-2.48
2023-01-27T17:23:24.325Z,-2.49
2023-01-27T17:25:51.839Z,-2.50
2023-01-27T17:28:22.772Z,-2.47
2023-01-27T17:30:51.857Z,-2.44
2023-01-27T17:33:21.544Z,-2.42
2023-01-27T17:35:51.698Z,-2.45
2023-01-27T17:38:24.488Z,-2.43
2023-01-27T17:40:53.517Z,-2.42
2023-01-27T17:43:29.279Z,-2.37
2023-01-27T17:46:15.287Z,-2.43
2023-01-27T17:48:48.830Z,-2.34
2023-01-27T17:51:21.713Z,-2.47
2023-01-27T17:53:52.174Z,-2.35
2023-01-27T17:56:22.811Z,-2.36
2023-01-27T17:58:54.073Z,-2.32
2023-01-27T18:01:22.822Z,-2.32
2023-01-27T18:03:54.677Z,-2.30
2023-01-27T18:06:25.556Z,-2.27
2023-01-27T18:08:56.305Z,-2.26
2023-01-27T18:11:31.360Z,-2.26
2023-01-27T18:14:02.087Z,-2.24
2023-01-27T18:16:30.011Z,-2.21
2023-01-27T18:19:08.531Z,-2.19
2023-01-27T18:21:36.771Z,-2.24
2023-01-27T18:24:21.267Z,-2.25
2023-01-27T18:26:49.342Z,-2.27
2023-01-27T18:29:22.963Z,-2.27
2023-01-27T18:31:54.846Z,-2.25
2023-01-27T18:34:28.843Z,-2.32
2023-01-27T18:36:59.152Z,-2.32
2023-01-27T18:39:35.453Z,-2.35
2023-01-27T18:42:04.347Z,-2.26
2023-01-27T18:44:35.961Z,-2.26
2023-01-27T18:47:24.582Z,-2.24
2023-01-27T18:49:56.810Z,-2.24
2023-01-27T18:52:24.268Z,-2.27
2023-01-27T18:54:55.755Z,-2.26
2023-01-27T18:57:23.045Z,-2.28
2023-01-27T18:59:50.687Z,-2.27
2023-01-27T19:02:18.122Z,-2.28
2023-01-27T19:04:45.885Z,-2.26
2023-01-27T19:07:14.011Z,-2.25
2023-01-27T19:09:42.016Z,-2.23
2023-01-27T19:12:11.631Z,-2.25
2023-01-27T19:14:39.106Z,-2.25
2023-01-27T19:17:14.051Z,-2.23
2023-01-27T19:19:41.596Z,-2.27
2023-01-27T19:22:15.377Z,-2.28
2023-01-27T19:24:45.515Z,-2.28
2023-01-27T19:27:15.665Z,-2.29
2023-01-27T19:29:43.250Z,-2.29
2023-01-27T19:32:12.265Z,-2.27
2023-01-27T19:34:39.942Z,-2.26
2023-01-27T19:37:16.505Z,-2.26
2023-01-27T19:39:45.225Z,-2.27
2023-01-27T19:42:15.964Z,-2.27
2023-01-27T19:44:43.552Z,-2.29
2023-01-27T19:47:12.487Z,-2.30
2023-01-27T19:49:40.345Z,-2.29
2023-01-27T19:52:07.858Z,-2.27
2023-01-27T19:54:35.169Z,-2.28
2023-01-27T19:57:02.571Z,-2.23
2023-01-27T19:59:31.224Z,-2.24
2023-01-27T20:01:58.779Z,-2.23
2023-01-27T20:04:26.750Z,-2.24
2023-01-27T20:06:54.822Z,-2.22
2023-01-27T20:09:22.156Z,-2.20
2023-01-27T20:11:49.504Z,-2.17
2023-01-27T20:14:19.363Z,-2.18
2023-01-27T20:16:48.272Z,-2.13
2023-01-27T20:19:16.488Z,-2.15
2023-01-27T20:21:44.822Z,-2.14
2023-01-27T20:24:14.728Z,-2.07
2023-01-27T20:26:42.077Z,-2.06
2023-01-27T20:29:09.753Z,-2.07
2023-01-27T20:31:38.929Z,-2.04
2023-01-27T20:34:07.645Z,-2.03
2023-01-27T20:36:35.148Z,-2.03
2023-01-27T20:39:02.436Z,-2.03
2023-01-27T20:41:29.950Z,-2.06
2023-01-27T20:44:00.716Z,-2.05
2023-01-27T20:46:29.302Z,-2.04
2023-01-27T20:48:56.760Z,-2.05
2023-01-27T20:51:25.598Z,-2.03
2023-01-27T20:53:53.673Z,-2.02
2023-01-27T20:56:22.737Z,-2.02
2023-01-27T20:58:51.047Z,-2.06
2023-01-27T21:01:20.606Z,-2.06
2023-01-27T21:03:49.035Z,-2.12
2023-01-27T21:06:19.576Z,-2.05
2023-01-27T21:08:49.550Z,-2.07
2023-01-27T21:11:18.754Z,-2.08
2023-01-27T21:13:46.825Z,-2.09
2023-01-27T21:16:14.467Z,-2.14
2023-01-27T21:18:44.253Z,-2.14
2023-01-27T21:21:22.261Z,-2.14
2023-01-27T21:23:51.194Z,-2.16
2023-01-27T21:26:18.609Z,-2.12
2023-01-27T21:28:46.456Z,-2.13
2023-01-27T21:31:17.273Z,-2.27
2023-01-27T21:33:50.310Z,-2.14
2023-01-27T21:36:18.031Z,-2.10
2023-01-27T21:38:45.590Z,-2.08
2023-01-27T21:41:34.877Z,-2.08
2023-01-27T21:44:21.197Z,-2.05
2023-01-27T21:46:48.560Z,-2.05
2023-01-27T21:49:16.540Z,-2.03
2023-01-27T21:51:43.814Z,-2.02
2023-01-27T21:54:11.104Z,-1.99
2023-01-27T21:56:39.773Z,-1.97
2023-01-27T21:59:08.253Z,-1.97
2023-01-27T22:01:35.561Z,-1.95
2023-01-27T22:04:03.578Z,-1.92
2023-01-27T22:06:31.035Z,-1.90
2023-01-27T22:08:58.452Z,-1.89
2023-01-27T22:11:25.751Z,-1.92
2023-01-27T22:13:54.697Z,-1.90
2023-01-27T22:16:23.213Z,-1.91
2023-01-27T22:18:50.446Z,-1.91
2023-01-27T22:21:17.809Z,-1.91
2023-01-27T22:23:45.274Z,-1.88
2023-01-27T22:26:12.749Z,-1.86
2023-01-27T22:28:40.012Z,-1.85
2023-01-27T22:31:09.044Z,-1.84
2023-01-27T22:33:36.401Z,-1.81
2023-01-27T22:36:05.635Z,-1.81
2023-01-27T22:38:37.917Z,-1.79
2023-01-27T22:41:05.644Z,-1.78
2023-01-27T22:43:32.972Z,-1.76
2023-01-27T22:46:01.755Z,-1.77
2023-01-27T22:48:31.249Z,-1.75
2023-01-27T22:51:03.128Z,-1.86
2023-01-27T22:53:30.536Z,-1.71
2023-01-27T22:55:58.628Z,-1.73
2023-01-27T22:58:26.381Z,-1.67
2023-01-27T23:00:54.370Z,-1.66
2023-01-27T23:03:22.767Z,-1.62
2023-01-27T23:05:51.453Z,-1.60
2023-01-27T23:08:21.692Z,-1.58
2023-01-27T23:10:50.029Z,-1.56
2023-01-27T23:13:17.569Z,-1.53
2023-01-27T23:15:45.795Z,-1.52
2023-01-27T23:18:13.285Z,-1.48
2023-01-27T23:20:42.309Z,-1.50
2023-01-27T23:23:11.758Z,-1.45
2023-01-27T23:25:44.622Z,-1.41
2023-01-27T23:28:12.424Z,-1.42
2023-01-27T23:30:42.920Z,-1.46
2023-01-27T23:33:11.503Z,-1.41
2023-01-27T23:35:39.062Z,-1.38
2023-01-27T23:38:14.015Z,-1.36
2023-01-27T23:40:54.272Z,-1.36
2023-01-27T23:43:22.595Z,-1.36
2023-01-27T23:45:53.517Z,-1.33
2023-01-27T23:48:22.200Z,-1.34
2023-01-27T23:50:50.109Z,-1.35
2023-01-27T23:53:17.565Z,-1.34
2023-01-27T23:55:44.805Z,-1.31
2023-01-27T23:58:13.751Z,-1.32
